createdAt,value
2022-10-28T00:00:34.052Z,98400.69
2022-10-28T00:03:02.099Z,98414.66
2022-10-28T00:05:33.336Z,98396.28
2022-10-28T00:07:59.848Z,98408.09
2022-10-28T00:10:26.352Z,98405.69
2022-10-28T00:12:52.860Z,98401.66
2022-10-28T00:15:19.356Z,98404.03
2022-10-28T00:17:45.867Z,98403.25
2022-10-28T00:20:12.704Z,98400.88
2022-10-28T00:22:39.271Z,98403.03
2022-10-28T00:25:06.180Z,98407.47
2022-10-28T00:27:33.291Z,98402.06
2022-10-28T00:30:00.155Z,98409.38
2022-10-28T00:32:29.681Z,98401.50
2022-10-28T00:34:56.188Z,98402.66
2022-10-28T00:37:22.820Z,98387.50
2022-10-28T00:39:49.455Z,98403.03
2022-10-28T00:42:20.698Z,98403.31
2022-10-28T00:45:01.228Z,98387.78
2022-10-28T00:47:27.704Z,98398.44
2022-10-28T00:50:03.567Z,98402.91
2022-10-28T00:52:31.619Z,98402.88
2022-10-28T00:55:01.211Z,98397.59
2022-10-28T00:57:32.064Z,98412.78
2022-10-28T01:00:00.620Z,98408.75
2022-10-28T01:02:31.313Z,98403.03
2022-10-28T01:04:58.313Z,98400.38
2022-10-28T01:07:25.795Z,98400.75
2022-10-28T01:09:52.666Z,98396.47
2022-10-28T01:12:40.422Z,98409.22
2022-10-28T01:15:20.133Z,98408.06
2022-10-28T01:17:55.471Z,98404.63
2022-10-28T01:21:03.168Z,98402.97
2022-10-28T01:23:41.781Z,98398.19
2022-10-28T01:26:35.982Z,98402.69
2022-10-28T01:29:14.638Z,98402.41
2022-10-28T01:31:54.804Z,98403.34
2022-10-28T01:34:50.731Z,98385.97
2022-10-28T01:37:35.065Z,98398.56
2022-10-28T01:40:04.535Z,98405.78
2022-10-28T01:42:33.657Z,98407.94
2022-10-28T01:45:11.812Z,98414.34
2022-10-28T01:47:59.129Z,98416.38
2022-10-28T01:50:44.847Z,98408.13
2022-10-28T01:53:16.920Z,98408.13
2022-10-28T01:55:48.867Z,98413.50
2022-10-28T01:58:20.049Z,98423.22
2022-10-28T02:00:47.809Z,98413.63
2022-10-28T02:03:16.569Z,98419.28
2022-10-28T02:05:43.057Z,98420.97
2022-10-28T02:08:18.427Z,98416.34
2022-10-28T02:11:27.385Z,98425.13
2022-10-28T02:14:22.002Z,98416.28
2022-10-28T02:17:10.708Z,98417.09
2022-10-28T02:20:06.916Z,98417.63
2022-10-28T02:22:44.812Z,98416.03
2022-10-28T02:25:23.123Z,98406.16
2022-10-28T02:28:08.938Z,98422.84
2022-10-28T02:30:44.350Z,98418.00
2022-10-28T02:33:15.352Z,98412.34
2022-10-28T02:35:57.727Z,98416.28
2022-10-28T02:38:31.381Z,98423.50
2022-10-28T02:41:02.862Z,98426.75
2022-10-28T02:43:35.409Z,98431.09
2022-10-28T02:46:04.656Z,98426.72
2022-10-28T02:48:49.651Z,98430.13
2022-10-28T02:51:23.124Z,98436.47
2022-10-28T02:54:11.037Z,98429.28
2022-10-28T02:56:42.263Z,98436.44
2022-10-28T02:59:11.694Z,98437.66
2022-10-28T03:01:39.169Z,98435.19
2022-10-28T03:04:06.344Z,98432.81
2022-10-28T03:06:33.201Z,98439.66
2022-10-28T03:08:59.699Z,98430.03
2022-10-28T03:11:26.205Z,98434.91
2022-10-28T03:13:52.767Z,98444.03
2022-10-28T03:16:19.284Z,98443.25
2022-10-28T03:18:46.039Z,98443.22
2022-10-28T03:21:12.530Z,98445.69
2022-10-28T03:23:39.052Z,98435.03
2022-10-28T03:26:05.734Z,98432.91
2022-10-28T03:28:32.251Z,98440.88
2022-10-28T03:30:58.731Z,98438.63
2022-10-28T03:33:25.272Z,98440.28
2022-10-28T03:35:51.813Z,98441.84
2022-10-28T03:38:18.302Z,98436.34
2022-10-28T03:40:48.347Z,98440.34
2022-10-28T03:43:18.182Z,98432.38
2022-10-28T03:45:44.755Z,98445.84
2022-10-28T03:48:11.274Z,98439.88
2022-10-28T03:50:37.775Z,98447.47
2022-10-28T03:53:04.334Z,98444.69
2022-10-28T03:55:30.853Z,98448.25
2022-10-28T03:58:00.691Z,98444.22
2022-10-28T04:00:28.267Z,98445.75
2022-10-28T04:02:55.274Z,98450.13
2022-10-28T04:05:22.065Z,98437.84
2022-10-28T04:07:48.763Z,98445.81
2022-10-28T04:10:15.522Z,98456.22
2022-10-28T04:12:42.015Z,98457.00
2022-10-28T04:15:08.847Z,98454.22
2022-10-28T04:17:35.950Z,98448.25
2022-10-28T04:20:02.621Z,98452.25
2022-10-28T04:22:29.125Z,98459.53
2022-10-28T04:24:55.675Z,98462.72
2022-10-28T04:27:22.206Z,98457.16
2022-10-28T04:29:48.741Z,98466.78
2022-10-28T04:32:15.241Z,98466.00
2022-10-28T04:34:41.743Z,98467.59
2022-10-28T04:37:08.233Z,98465.97
2022-10-28T04:39:34.791Z,98464.00
2022-10-28T04:42:01.298Z,98464.41
2022-10-28T04:44:27.807Z,98446.53
2022-10-28T04:46:56.507Z,98457.63
2022-10-28T04:49:23.103Z,98458.03
2022-10-28T04:51:49.615Z,98462.00
2022-10-28T04:54:16.133Z,98458.91
2022-10-28T04:56:42.678Z,98465.31
2022-10-28T04:59:09.215Z,98465.31
2022-10-28T05:01:36.691Z,98472.50
2022-10-28T05:04:03.654Z,98454.16
2022-10-28T05:06:30.209Z,98465.28
2022-10-28T05:08:56.757Z,98466.91
2022-10-28T05:11:23.297Z,98470.09
2022-10-28T05:13:49.911Z,98463.28
2022-10-28T05:16:16.468Z,98463.72
2022-10-28T05:21:14.427Z,98471.41
2022-10-28T05:23:41.212Z,98479.72
2022-10-28T05:26:07.777Z,98469.34
2022-10-28T05:28:34.403Z,98470.97
2022-10-28T05:31:00.947Z,98471.41
2022-10-28T05:33:27.448Z,98475.03
2022-10-28T05:35:53.969Z,98471.84
2022-10-28T05:38:20.534Z,98482.16
2022-10-28T05:40:47.071Z,98486.16
2022-10-28T05:43:13.601Z,98489.69
2022-10-28T05:45:40.099Z,98500.38
2022-10-28T05:48:07.279Z,98498.63
2022-10-28T05:50:34.163Z,98496.59
2022-10-28T05:53:00.789Z,98500.97
2022-10-28T05:55:29.608Z,98508.03
2022-10-28T05:57:57.349Z,98505.34
2022-10-28T06:00:26.099Z,98509.03
2022-10-28T06:02:53.548Z,98505.50
2022-10-28T06:05:20.402Z,98502.38
2022-10-28T06:07:47.148Z,98492.84
2022-10-28T06:10:13.867Z,98498.91
2022-10-28T06:12:39.305Z,98515.00
2022-10-28T06:15:06.794Z,98511.25
2022-10-28T06:17:33.301Z,98511.53
2022-10-28T06:19:59.858Z,98519.97
2022-10-28T06:22:26.395Z,98516.28
2022-10-28T06:24:52.931Z,98513.66
2022-10-28T06:27:19.431Z,98509.94
2022-10-28T06:29:45.928Z,98513.03
2022-10-28T06:32:12.595Z,98509.72
2022-10-28T06:34:39.174Z,98516.09
2022-10-28T06:37:05.770Z,98518.75
2022-10-28T06:39:32.910Z,98508.03
2022-10-28T06:41:59.565Z,98508.66
2022-10-28T06:44:26.257Z,98502.81
2022-10-28T06:46:54.352Z,98503.78
2022-10-28T06:49:20.926Z,98502.13
2022-10-28T06:51:47.488Z,98505.78
2022-10-28T06:54:13.982Z,98504.66
2022-10-28T06:56:40.536Z,98496.22
2022-10-28T06:59:07.715Z,98494.06
2022-10-28T07:01:34.361Z,98489.41
2022-10-28T07:04:00.933Z,98497.44
2022-10-28T07:06:27.454Z,98496.72
2022-10-28T07:08:53.949Z,98487.31
2022-10-28T07:11:20.529Z,98481.88
2022-10-28T07:13:49.028Z,98478.50
2022-10-28T07:16:15.700Z,98478.00
2022-10-28T07:18:42.236Z,98480.91
2022-10-28T07:21:08.751Z,98475.88
2022-10-28T07:23:35.337Z,98476.06
2022-10-28T07:26:01.921Z,98476.09
2022-10-28T07:28:28.982Z,98464.53
2022-10-28T07:30:59.730Z,98473.41
2022-10-28T07:33:26.269Z,98466.84
2022-10-28T07:35:52.760Z,98469.00
2022-10-28T07:38:19.406Z,98470.31
2022-10-28T07:40:45.967Z,98472.91
2022-10-28T07:43:12.559Z,98468.31
2022-10-28T07:45:39.114Z,98456.28
2022-10-28T07:48:06.651Z,98457.38
2022-10-28T07:50:33.184Z,98453.50
2022-10-28T07:53:00.340Z,98454.28
2022-10-28T07:55:27.002Z,98443.63
2022-10-28T07:57:53.849Z,98441.16
2022-10-28T08:00:20.676Z,98440.66
2022-10-28T08:02:47.285Z,98435.09
2022-10-28T08:05:13.802Z,98437.75
2022-10-28T08:07:40.314Z,98437.31
2022-10-28T08:10:07.922Z,98434.75
2022-10-28T08:12:34.500Z,98433.56
2022-10-28T08:15:01.009Z,98429.31
2022-10-28T08:17:27.545Z,98420.66
2022-10-28T08:19:54.047Z,98411.25
2022-10-28T08:22:20.670Z,98438.47
2022-10-28T08:24:47.263Z,98447.25
2022-10-28T08:27:13.810Z,98477.72
2022-10-28T08:29:40.326Z,98466.75
2022-10-28T08:32:10.132Z,98471.47
2022-10-28T08:34:39.358Z,98481.28
2022-10-28T08:37:09.153Z,98475.16
2022-10-28T08:39:35.716Z,98477.78
2022-10-28T08:42:28.830Z,98469.56
2022-10-28T08:45:23.369Z,98473.22
2022-10-28T08:48:08.199Z,98470.34
2022-10-28T08:50:53.080Z,98463.00
2022-10-28T08:53:27.561Z,98464.22
2022-10-28T08:56:00.511Z,98459.06
2022-10-28T08:58:33.270Z,98463.28
2022-10-28T09:01:00.187Z,98455.56
2022-10-28T09:03:39.044Z,98458.59
2022-10-28T09:06:08.461Z,98460.78
2022-10-28T09:08:39.421Z,98455.69
2022-10-28T09:11:43.244Z,98453.22
2022-10-28T09:14:21.625Z,98447.59
2022-10-28T09:16:52.681Z,98444.13
2022-10-28T09:19:19.134Z,98427.16
2022-10-28T09:21:50.945Z,98426.56
2022-10-28T09:24:29.800Z,98425.66
2022-10-28T09:27:08.409Z,98418.44
2022-10-28T09:29:49.749Z,98420.59
2022-10-28T09:32:35.129Z,98413.84
2022-10-28T09:35:09.774Z,98415.50
2022-10-28T09:37:43.255Z,98408.06
2022-10-28T09:41:14.308Z,98406.66
2022-10-28T09:43:48.296Z,98399.94
2022-10-28T09:46:17.855Z,98399.94
2022-10-28T09:48:48.291Z,98394.78
2022-10-28T09:51:45.032Z,98389.63
2022-10-28T09:54:12.842Z,98383.38
2022-10-28T09:56:40.521Z,98374.84
2022-10-28T09:59:11.559Z,98377.47
2022-10-28T10:01:39.795Z,98360.56
2022-10-28T10:04:28.233Z,98366.38
2022-10-28T10:09:45.570Z,98356.19
2022-10-28T10:12:13.708Z,98352.38
2022-10-28T10:14:49.213Z,98359.00
2022-10-28T10:17:22.659Z,98348.53
2022-10-28T10:20:07.572Z,98346.34
2022-10-28T10:22:37.140Z,98337.41
2022-10-28T10:25:21.797Z,98339.03
2022-10-28T10:27:53.150Z,98334.13
2022-10-28T10:30:30.032Z,98332.59
2022-10-28T10:32:57.937Z,98315.44
2022-10-28T10:35:28.536Z,98322.63
2022-10-28T10:37:59.101Z,98310.16
2022-10-28T10:40:31.228Z,98313.25
2022-10-28T10:43:21.522Z,98314.78
2022-10-28T10:46:00.664Z,98295.59
2022-10-28T10:48:28.589Z,98289.91
2022-10-28T10:50:55.783Z,98284.19
2022-10-28T10:53:31.734Z,98282.41
2022-10-28T10:56:01.687Z,98286.09
2022-10-28T10:58:32.389Z,98274.66
2022-10-28T11:01:02.864Z,98283.31
2022-10-28T11:03:36.850Z,98287.03
2022-10-28T11:09:03.230Z,98280.56
2022-10-28T11:11:38.530Z,98265.19
2022-10-28T11:14:18.199Z,98264.41
2022-10-28T11:16:59.769Z,98265.72
2022-10-28T11:19:32.265Z,98263.13
2022-10-28T11:22:21.544Z,98261.00
2022-10-28T11:25:12.617Z,98251.63
2022-10-28T11:28:04.000Z,98258.44
2022-10-28T11:31:09.312Z,98252.69
2022-10-28T11:34:00.653Z,98248.00
2022-10-28T11:36:55.094Z,98235.50
2022-10-28T11:39:37.386Z,98225.63
2022-10-28T11:42:24.574Z,98225.63
2022-10-28T11:44:51.059Z,98215.97
2022-10-28T11:47:56.361Z,98222.97
2022-10-28T11:50:39.183Z,98218.56
2022-10-28T11:53:24.169Z,98207.63
2022-10-28T11:55:50.645Z,98208.16
2022-10-28T11:58:38.318Z,98213.88
2022-10-28T12:01:26.283Z,98197.44
2022-10-28T12:04:08.686Z,98211.00
2022-10-28T12:06:55.428Z,98203.72
2022-10-28T12:09:24.629Z,98193.84
2022-10-28T12:12:09.736Z,98191.75
2022-10-28T12:14:42.229Z,98194.06
2022-10-28T12:17:40.563Z,98174.53
2022-10-28T12:20:23.214Z,98170.13
2022-10-28T12:22:54.388Z,98171.16
2022-10-28T12:25:25.463Z,98176.09
2022-10-28T12:27:58.035Z,98163.81
2022-10-28T12:30:31.059Z,98168.00
2022-10-28T12:33:11.382Z,98156.78
2022-10-28T12:35:45.861Z,98176.63
2022-10-28T12:38:27.439Z,98162.53
2022-10-28T12:41:07.932Z,98154.97
2022-10-28T12:43:44.014Z,98154.91
2022-10-28T12:46:44.968Z,98154.88
2022-10-28T12:49:36.593Z,98154.16
2022-10-28T12:52:14.066Z,98147.66
2022-10-28T12:55:11.653Z,98147.34
2022-10-28T12:57:39.600Z,98142.44
2022-10-28T13:00:11.399Z,98145.31
2022-10-28T13:02:43.243Z,98132.81
2022-10-28T13:05:20.918Z,98136.47
2022-10-28T13:07:58.611Z,98137.53
2022-10-28T13:10:51.079Z,98139.06
2022-10-28T13:13:36.086Z,98135.19
2022-10-28T13:16:14.535Z,98135.72
2022-10-28T13:19:02.954Z,98134.44
2022-10-28T13:21:46.914Z,98131.03
2022-10-28T13:24:19.477Z,98129.72
2022-10-28T13:26:47.449Z,98132.34
2022-10-28T13:29:25.853Z,98121.38
2022-10-28T13:31:53.903Z,98124.28
2022-10-28T13:34:30.361Z,98121.69
2022-10-28T13:37:00.009Z,98121.91
2022-10-28T13:39:29.570Z,98121.91
2022-10-28T13:42:25.384Z,98119.06
2022-10-28T13:45:03.938Z,98121.41
2022-10-28T13:47:32.821Z,98121.38
2022-10-28T13:50:08.815Z,98114.59
2022-10-28T13:52:40.439Z,98121.34
2022-10-28T13:55:27.169Z,98118.19
2022-10-28T13:58:18.629Z,98111.91
2022-10-28T14:00:46.798Z,98117.63
2022-10-28T14:03:26.498Z,98114.75
2022-10-28T14:05:55.089Z,98117.59
2022-10-28T14:08:29.596Z,98116.28
2022-10-28T14:11:12.840Z,98112.38
2022-10-28T14:13:48.146Z,98108.97
2022-10-28T14:16:18.648Z,98112.31
2022-10-28T14:19:11.588Z,98119.09
2022-10-28T14:22:03.450Z,98116.28
2022-10-28T14:24:31.960Z,98120.72
2022-10-28T14:27:12.203Z,98116.81
2022-10-28T14:30:04.111Z,98115.97
2022-10-28T14:32:33.470Z,98120.63
2022-10-28T14:35:03.661Z,98125.25
2022-10-28T14:37:48.899Z,98125.19
2022-10-28T14:40:39.009Z,98121.44
2022-10-28T14:43:14.329Z,98120.56
2022-10-28T14:45:56.517Z,98116.34
2022-10-28T14:48:22.949Z,98115.41
2022-10-28T14:50:52.426Z,98121.53
2022-10-28T14:53:28.149Z,98127.41
2022-10-28T14:56:11.999Z,98113.66
2022-10-28T14:58:41.718Z,98115.66
2022-10-28T15:01:24.036Z,98117.19
2022-10-28T15:04:01.049Z,98122.41
2022-10-28T15:06:42.714Z,98123.66
2022-10-28T15:09:17.834Z,98118.13
2022-10-28T15:11:49.546Z,98120.47
2022-10-28T15:14:25.833Z,98118.88
2022-10-28T15:16:53.147Z,98121.16
2022-10-28T15:19:21.019Z,98123.66
2022-10-28T15:22:05.985Z,98125.94
2022-10-28T15:24:35.481Z,98128.19
2022-10-28T15:27:02.107Z,98132.63
2022-10-28T15:29:29.177Z,98127.81
2022-10-28T15:32:13.641Z,98126.66
2022-10-28T15:34:41.699Z,98135.53
2022-10-28T15:37:09.269Z,98145.34
2022-10-28T15:39:36.766Z,98131.78
2022-10-28T15:42:06.432Z,98143.75
2022-10-28T15:44:38.580Z,98134.03
2022-10-28T15:47:35.825Z,98137.34
2022-10-28T15:52:52.401Z,98141.19
2022-10-28T15:55:19.156Z,98139.31
2022-10-28T15:57:54.227Z,98146.72
2022-10-28T16:00:27.107Z,98139.38
2022-10-28T16:03:01.526Z,98129.69
2022-10-28T16:05:31.540Z,98130.75
2022-10-28T16:08:03.235Z,98132.53
2022-10-28T16:10:44.875Z,98141.41
2022-10-28T16:13:18.851Z,98145.38
2022-10-28T16:15:51.195Z,98145.19
2022-10-28T16:18:17.949Z,98145.19
2022-10-28T16:20:45.363Z,98141.41
2022-10-28T16:23:16.501Z,98149.34
2022-10-28T16:25:43.079Z,98150.50
2022-10-28T16:28:31.502Z,98154.41
2022-10-28T16:31:00.034Z,98151.78
2022-10-28T16:33:32.919Z,98158.56
2022-10-28T16:36:00.115Z,98149.72
2022-10-28T16:38:26.989Z,98142.38
2022-10-28T16:40:54.062Z,98154.03
2022-10-28T16:43:25.903Z,98150.91
2022-10-28T16:45:54.374Z,98156.38
2022-10-28T16:48:23.513Z,98154.25
2022-10-28T16:50:53.047Z,98159.94
2022-10-28T16:53:19.709Z,98171.50
2022-10-28T16:55:46.332Z,98157.78
2022-10-28T16:58:13.107Z,98164.44
2022-10-28T17:00:41.030Z,98162.06
2022-10-28T17:03:10.876Z,98166.59
2022-10-28T17:05:37.539Z,98179.13
2022-10-28T17:08:05.911Z,98164.69
2022-10-28T17:10:36.455Z,98175.66
2022-10-28T17:13:03.207Z,98177.06
2022-10-28T17:15:29.734Z,98174.97
2022-10-28T17:17:57.923Z,98180.56
2022-10-28T17:20:24.461Z,98186.19
2022-10-28T17:22:51.018Z,98181.03
2022-10-28T17:25:17.749Z,98180.38
2022-10-28T17:27:48.429Z,98189.88
2022-10-28T17:30:17.532Z,98188.81
2022-10-28T17:32:44.980Z,98195.88
2022-10-28T17:35:11.705Z,98196.22
2022-10-28T17:37:38.225Z,98192.28
2022-10-28T17:40:05.496Z,98200.78
2022-10-28T17:42:32.043Z,98200.31
2022-10-28T17:44:58.535Z,98204.38
2022-10-28T17:47:25.068Z,98196.81
2022-10-28T17:49:51.593Z,98215.84
2022-10-28T17:52:18.099Z,98216.59
2022-10-28T17:54:45.171Z,98216.75
2022-10-28T17:57:11.999Z,98216.25
2022-10-28T17:59:38.673Z,98218.44
2022-10-28T18:02:05.294Z,98218.44
2022-10-28T18:04:31.873Z,98214.34
2022-10-28T18:06:58.409Z,98214.19
2022-10-28T18:09:25.154Z,98217.19
2022-10-28T18:11:51.891Z,98214.53
2022-10-28T18:14:20.179Z,98211.84
2022-10-28T18:16:46.778Z,98222.03
2022-10-28T18:19:13.805Z,98220.88
2022-10-28T18:21:40.416Z,98222.59
2022-10-28T18:24:07.549Z,98227.78
2022-10-28T18:26:36.684Z,98224.91
2022-10-28T18:29:05.432Z,98229.91
2022-10-28T18:31:33.308Z,98225.44
2022-10-28T18:34:01.427Z,98223.44
2022-10-28T18:36:30.793Z,98225.34
2022-10-28T18:38:57.746Z,98239.59
2022-10-28T18:41:26.835Z,98232.81
2022-10-28T18:43:58.707Z,98234.41
2022-10-28T18:46:27.966Z,98246.00
2022-10-28T18:48:57.453Z,98248.03
2022-10-28T18:51:24.909Z,98244.50
2022-10-28T18:53:51.988Z,98254.47
2022-10-28T18:56:22.125Z,98249.41
2022-10-28T18:58:49.373Z,98254.84
2022-10-28T19:01:19.372Z,98248.72
2022-10-28T19:03:48.215Z,98248.28
2022-10-28T19:06:16.538Z,98260.88
2022-10-28T19:08:44.051Z,98250.75
2022-10-28T19:11:11.520Z,98264.53
2022-10-28T19:13:40.183Z,98261.31
2022-10-28T19:16:08.124Z,98256.16
2022-10-28T19:18:38.465Z,98258.22
2022-10-28T19:21:12.318Z,98257.66
2022-10-28T19:23:39.318Z,98255.97
2022-10-28T19:26:06.795Z,98265.22
2022-10-28T19:28:44.796Z,98264.22
2022-10-28T19:31:20.035Z,98267.97
2022-10-28T19:33:46.788Z,98272.81
2022-10-28T19:36:19.806Z,98277.66
2022-10-28T19:38:47.930Z,98275.13
2022-10-28T19:41:17.193Z,98289.38
2022-10-28T19:43:44.596Z,98294.16
2022-10-28T19:46:13.271Z,98295.22
2022-10-28T19:48:41.405Z,98299.03
2022-10-28T19:51:09.194Z,98302.88
2022-10-28T19:53:35.769Z,98304.03
2022-10-28T19:56:03.779Z,98299.53
2022-10-28T19:58:31.337Z,98301.28
2022-10-28T20:01:06.130Z,98305.09
2022-10-28T20:03:35.035Z,98309.16
2022-10-28T20:06:11.243Z,98311.06
2022-10-28T20:08:39.644Z,98313.00
2022-10-28T20:11:08.725Z,98317.41
2022-10-28T20:13:36.241Z,98313.38
2022-10-28T20:16:06.682Z,98321.31
2022-10-28T20:18:33.873Z,98319.56
2022-10-28T20:21:27.878Z,98322.91
2022-10-28T20:23:56.141Z,98312.31
2022-10-28T20:26:26.183Z,98325.53
2022-10-28T20:28:53.048Z,98317.97
2022-10-28T20:31:22.349Z,98321.75
2022-10-28T20:33:54.153Z,98327.38
2022-10-28T20:36:37.096Z,98324.66
2022-10-28T20:39:03.575Z,98322.41
2022-10-28T20:41:34.947Z,98319.84
2022-10-28T20:44:02.746Z,98320.09
2022-10-28T20:46:29.843Z,98309.91
2022-10-28T20:48:56.843Z,98323.59
2022-10-28T20:51:25.464Z,98320.91
2022-10-28T20:53:52.229Z,98329.00
2022-10-28T20:56:26.460Z,98319.75
2022-10-28T20:58:54.674Z,98322.91
2022-10-28T21:01:24.208Z,98326.63
2022-10-28T21:03:54.275Z,98321.16
2022-10-28T21:06:21.026Z,98334.06
2022-10-28T21:08:47.850Z,98331.34
2022-10-28T21:11:15.681Z,98340.66
2022-10-28T21:13:43.310Z,98337.78
2022-10-28T21:16:12.724Z,98334.16
2022-10-28T21:18:40.005Z,98339.88
2022-10-28T21:21:07.053Z,98343.84
2022-10-28T21:23:33.610Z,98345.88
2022-10-28T21:26:02.511Z,98348.31
2022-10-28T21:28:30.215Z,98352.44
2022-10-28T21:31:06.959Z,98344.38
2022-10-28T21:33:35.829Z,98346.50
2022-10-28T21:36:05.241Z,98351.13
2022-10-28T21:38:31.968Z,98345.97
2022-10-28T21:41:06.588Z,98353.34
2022-10-28T21:43:35.324Z,98351.03
2022-10-28T21:46:02.184Z,98356.41
2022-10-28T21:48:29.491Z,98349.47
2022-10-28T21:50:58.035Z,98348.22
2022-10-28T21:53:25.534Z,98346.66
2022-10-28T21:55:53.021Z,98351.13
2022-10-28T21:58:20.510Z,98345.56
2022-10-28T22:00:48.037Z,98345.81
2022-10-28T22:03:14.502Z,98349.00
2022-10-28T22:05:49.182Z,98346.94
2022-10-28T22:08:16.454Z,98348.97
2022-10-28T22:10:42.948Z,98348.69
2022-10-28T22:13:09.447Z,98352.28
2022-10-28T22:15:35.968Z,98350.00
2022-10-28T22:18:02.475Z,98353.28
2022-10-28T22:20:28.994Z,98337.94
2022-10-28T22:22:55.913Z,98352.75
2022-10-28T22:25:22.576Z,98353.44
2022-10-28T22:27:49.066Z,98351.34
2022-10-28T22:30:15.595Z,98350.91
2022-10-28T22:32:42.095Z,98346.66
2022-10-28T22:35:09.031Z,98342.97
2022-10-28T22:37:35.537Z,98342.03
2022-10-28T22:40:02.034Z,98340.59
2022-10-28T22:42:28.533Z,98345.91
2022-10-28T22:44:55.042Z,98342.03
2022-10-28T22:47:21.551Z,98341.41
2022-10-28T22:49:48.075Z,98335.06
2022-10-28T22:52:14.613Z,98345.22
2022-10-28T22:54:41.112Z,98332.03
2022-10-28T22:57:07.611Z,98339.28
2022-10-28T22:59:34.154Z,98321.22
2022-10-28T23:02:00.780Z,98344.06
2022-10-28T23:04:27.496Z,98332.59
2022-10-28T23:06:54.003Z,98333.31
2022-10-28T23:09:20.646Z,98329.09
2022-10-28T23:11:47.255Z,98340.25
2022-10-28T23:14:13.814Z,98334.38
2022-10-28T23:16:40.325Z,98335.06
2022-10-28T23:19:06.821Z,98344.22
2022-10-28T23:21:33.377Z,98330.78
2022-10-28T23:24:00.711Z,98333.81
2022-10-28T23:26:28.154Z,98332.03
2022-10-28T23:28:57.784Z,98326.69
2022-10-28T23:31:26.529Z,98326.69
2022-10-28T23:33:54.826Z,98325.47
2022-10-28T23:36:21.892Z,98326.69
2022-10-28T23:38:48.410Z,98332.75
2022-10-28T23:41:18.777Z,98322.38
2022-10-28T23:43:46.120Z,98326.09
2022-10-28T23:46:12.900Z,98311.16
2022-10-28T23:48:39.423Z,98328.63
2022-10-28T23:51:06.800Z,98318.19
2022-10-28T23:53:33.574Z,98329.44
2022-10-28T23:56:00.364Z,98318.03
2022-10-28T23:58:26.878Z,98327.25
